EST,Max TemperatureF,Mean TemperatureF,Min TemperatureF,Max Dew PointF,MeanDew PointF,Min DewpointF,Max Humidity, Mean Humidity, Min Humidity, Max Sea Level PressureIn, Mean Sea Level PressureIn, Min Sea Level PressureIn, Max VisibilityMiles, Mean VisibilityMiles, Min VisibilityMiles, Max Wind SpeedMPH, Mean Wind SpeedMPH, Max Gust SpeedMPH,PrecipitationIn, CloudCover, Events, WindDirDegrees
2012-11-1,76,62,48,58,47,33,93,60,27,30.10,30.03,29.96,10,10,7,14,4,28,T,2,Rain,317
2012-11-2,79,62,44,65,54,42,100,74,48,30.12,30.07,30.03,10,8,0,17,2,32,0.00,0,Fog,209
2012-11-3,83,70,57,66,62,57,100,74,47,30.16,30.10,30.04,10,4,0,14,1,18,0.00,1,Fog,216
2012-11-4,80,69,58,66,62,57,100,79,58,30.13,30.08,30.00,10,5,0,15,2,17,0.00,3,Fog,249
2012-11-5,75,63,51,57,48,35,96,61,25,30.10,30.03,29.94,10,9,6,12,5,17,T,1,Rain,4
2012-11-6,65,56,47,55,51,44,93,73,52,30.03,29.95,29.91,10,7,0,23,6,29,0.14,3,Fog-Rain,321
2012-11-7,65,55,45,46,43,39,93,67,40,30.12,30.02,29.95,10,10,9,20,7,26,0.00,2,,304
2012-11-8,66,53,40,46,39,36,93,65,37,30.25,30.19,30.12,10,9,8,13,5,22,0.00,0,,333
2012-11-9,71,54,36,47,40,34,93,62,31,30.34,30.28,30.23,10,10,9,8,1,16,0.00,0,,334
2012-11-10,73,57,40,54,45,38,93,67,41,30.36,30.31,30.27,10,10,8,10,2,18,0.00,0,,125
2012-11-11,79,63,47,57,50,39,89,64,39,30.35,30.29,30.27,10,10,10,18,6,25,0.00,1,,80
2012-11-12,77,67,57,65,60,54,100,85,69,30.28,30.24,30.20,10,8,2,20,7,24,0.18,4,Rain,46
2012-11-13,66,57,47,55,43,34,96,64,31,30.32,30.26,30.20,10,9,3,17,10,22,T,4,Rain,341
2012-11-14,62,55,47,56,50,36,93,77,61,30.27,30.23,30.18,10,7,2,10,6,14,T,8,Rain,350
2012-11-15,58,54,50,54,50,44,100,86,71,30.27,30.22,30.16,10,7,2,13,8,15,0.00,8,,2
2012-11-16,56,49,42,47,45,41,96,84,71,30.31,30.26,30.20,10,9,6,14,6,18,0.00,6,,24
2012-11-17,66,53,39,46,42,37,93,71,48,30.33,30.29,30.25,10,9,4,14,5,18,0.00,3,,1
2012-11-18,71,60,49,48,43,37,89,63,37,30.32,30.28,30.24,10,10,10,16,8,21,0.00,2,,1
2012-11-19,72,58,44,49,46,41,93,67,41,30.29,30.24,30.18,10,10,10,16,5,21,0.00,0,,338
2012-11-20,72,61,49,54,51,46,93,70,47,30.22,30.15,30.10,10,9,7,13,2,15,T,4,,325
2012-11-21,74,61,47,52,48,45,93,67,41,30.20,30.16,30.11,10,9,6,15,5,17,0.00,1,,324
2012-11-22,75,59,43,50,45,41,96,65,33,30.27,30.22,30.18,10,9,5,12,3,23,0.00,0,,331
2012-11-23,75,60,44,54,48,42,93,66,38,30.28,30.20,30.14,10,9,6,15,3,22,0.00,0,,275
2012-11-24,63,52,40,51,38,29,93,60,27,30.24,30.18,30.14,10,10,7,16,7,20,0.00,0,,322
2012-11-25,64,47,29,38,30,22,92,58,23,30.28,30.20,30.16,10,10,10,9,1,28,0.00,0,,234
2012-11-26,70,51,32,54,44,29,89,69,49,30.27,30.21,30.18,10,10,10,9,2,13,0.00,1,,102
2012-11-27,63,60,56,61,57,51,100,90,80,30.25,30.18,30.10,10,8,2,18,4,22,0.46,8,Rain,360
2012-11-28,60,51,41,57,48,39,96,74,51,30.39,30.32,30.20,10,7,2,16,6,20,0.00,5,,348
2012-11-29,66,53,39,53,45,37,93,75,56,30.41,30.35,30.31,10,7,2,12,3,15,0.00,4,,21
2012-11-30,74,60,46,56,52,44,96,71,46,30.34,30.29,30.24,10,9,5,10,3,15,0.00,2,,76